Time;durP1;ratioP1;P1;durP2;ratioP2;P2;SDS_P1;SDS_P2;PMS_P1;PMS_P2;Temp;Humidity;BMP_temperature;BMP_pressure;BME280_temperature;BME280_humidity;BME280_pressure;Samples;Min_cycle;Max_cycle;Signal;HPM_P1;HPM_P2
2022/08/27 04:01:13;;;;;;;17.07;15.07;;;17.30;96.30;;;;;;5597245;23;20497;-78
2022/08/27 04:03:38;;;;;;;19.60;16.13;;;17.30;96.30;;;;;;4987835;28;20424;-77
2022/08/27 04:06:04;;;;;;;20.43;17.03;;;17.30;96.30;;;;;;4980187;28;20177;-75
2022/08/27 04:08:30;;;;;;;18.87;15.43;;;17.30;96.30;;;;;;4972916;28;20233;-75
2022/08/27 04:10:55;;;;;;;20.10;14.40;;;17.30;96.30;;;;;;4990548;28;20197;-75
2022/08/27 04:13:22;;;;;;;19.70;14.33;;;17.30;96.30;;;;;;4995631;28;20214;-77
2022/08/27 04:15:50;;;;;;;15.77;14.07;;;17.30;96.30;;;;;;4983588;28;20210;-77
2022/08/27 04:18:16;;;;;;;15.57;13.70;;;17.40;96.30;;;;;;4984489;28;20414;-78
2022/08/27 04:20:47;;;;;;;28.97;16.17;;;17.40;96.30;;;;;;4973377;28;20585;-78
2022/08/27 04:23:12;;;;;;;19.57;16.60;;;17.40;96.30;;;;;;4973298;28;20448;-78
2022/08/27 04:25:42;;;;;;;19.03;16.60;;;17.40;96.30;;;;;;4973111;28;20863;-78
2022/08/27 04:28:09;;;;;;;23.40;18.07;;;17.30;96.30;;;;;;4955524;28;20182;-78
2022/08/27 04:30:39;;;;;;;21.47;18.17;;;17.30;96.30;;;;;;4973370;28;20437;-78
2022/08/27 04:33:04;;;;;;;23.50;18.53;;;17.30;96.30;;;;;;4973417;28;20402;-78
2022/08/27 04:35:30;;;;;;;26.07;18.77;;;17.30;96.30;;;;;;4973390;28;20445;-79
2022/08/27 04:37:56;;;;;;;22.77;19.70;;;17.30;96.30;;;;;;4972811;28;20671;-78
2022/08/27 04:41:17;;;;;;;27.23;19.20;;;17.30;96.30;;;;;;4976589;28;20173;-78
2022/08/27 04:43:07;;;;;;;27.33;18.80;;;17.30;96.30;;;;;;4992426;28;20419;-78
2022/08/27 04:45:32;;;;;;;23.70;19.77;;;17.30;96.30;;;;;;4992619;28;20433;-78
2022/08/27 04:47:58;;;;;;;32.03;18.50;;;17.30;96.30;;;;;;4992045;28;20225;-78
2022/08/27 04:50:23;;;;;;;25.73;20.90;;;17.30;96.30;;;;;;4992509;28;20178;-78
2022/08/27 04:52:49;;;;;;;26.10;20.50;;;17.30;96.30;;;;;;4992605;28;20189;-78
2022/08/27 04:55:14;;;;;;;25.50;19.73;;;17.30;96.30;;;;;;4992505;28;20205;-78
2022/08/27 04:57:40;;;;;;;26.43;20.77;;;17.30;96.30;;;;;;4975032;28;20189;-78
2022/08/27 05:00:08;;;;;;;24.10;19.30;;;17.30;96.30;;;;;;4973552;28;20240;-79
2022/08/27 05:02:33;;;;;;;30.00;20.17;;;17.40;96.30;;;;;;4974651;28;20527;-78
2022/08/27 05:04:59;;;;;;;23.73;20.70;;;17.40;96.30;;;;;;4974734;28;20423;-78
2022/08/27 05:07:24;;;;;;;22.40;20.10;;;17.40;96.30;;;;;;4992110;28;20204;-78
2022/08/27 05:09:51;;;;;;;29.00;19.63;;;17.50;96.30;;;;;;4974191;28;20182;-78
2022/08/27 05:12:16;;;;;;;25.33;20.37;;;17.50;96.30;;;;;;4992036;28;20198;-78
2022/08/27 05:14:42;;;;;;;25.80;19.47;;;17.50;96.30;;;;;;4991949;28;20451;-78
2022/08/27 05:17:07;;;;;;;23.47;20.07;;;17.50;96.30;;;;;;4992043;28;20180;-78
2022/08/27 05:19:33;;;;;;;24.33;20.00;;;17.60;96.30;;;;;;4973718;28;20178;-78
2022/08/27 05:21:58;;;;;;;32.77;18.70;;;17.60;96.30;;;;;;4974458;28;20201;-78
2022/08/27 05:24:24;;;;;;;30.13;19.53;;;17.60;96.30;;;;;;4991994;28;20174;-78
2022/08/27 05:26:50;;;;;;;24.20;17.53;;;17.60;96.30;;;;;;4994583;28;20178;-80
2022/08/27 05:29:16;;;;;;;21.27;18.90;;;17.60;96.30;;;;;;4997683;28;20633;-80
2022/08/27 05:31:41;;;;;;;24.53;18.10;;;17.70;96.30;;;;;;4996085;28;20437;-80
2022/08/27 05:34:08;;;;;;;22.00;15.30;;;17.70;96.30;;;;;;4979658;28;20480;-80
2022/08/27 05:36:34;;;;;;;20.93;15.63;;;17.70;96.30;;;;;;4993035;28;20633;-78
2022/08/27 05:39:03;;;;;;;17.93;15.17;;;17.70;96.30;;;;;;4994382;28;20407;-77
2022/08/27 05:41:30;;;;;;;22.07;16.50;;;17.80;96.30;;;;;;4982246;28;20197;-77
2022/08/27 05:43:58;;;;;;;18.37;15.07;;;17.80;96.30;;;;;;4975447;28;20420;-77
2022/08/27 05:46:25;;;;;;;23.70;15.40;;;17.80;96.30;;;;;;4975660;28;20464;-78
2022/08/27 05:48:54;;;;;;;25.77;14.83;;;17.80;96.30;;;;;;4974840;28;20420;-78
2022/08/27 05:51:20;;;;;;;20.17;14.60;;;17.90;96.30;;;;;;4975576;28;20437;-78
2022/08/27 05:53:46;;;;;;;19.50;16.27;;;17.90;96.30;;;;;;4975442;28;20408;-77
2022/08/27 05:56:21;;;;;;;17.67;14.60;;;17.90;96.30;;;;;;4958162;28;20781;-77
2022/08/27 06:01:36;;;;;;;14.20;12.73;;;18.00;96.30;;;;;;4977803;28;20816;-77
2022/08/27 06:04:03;;;;;;;14.13;12.43;;;17.90;96.30;;;;;;4976365;28;20408;-77
2022/08/27 06:06:29;;;;;;;17.77;12.93;;;17.90;96.30;;;;;;4958033;28;20413;-77
2022/08/27 06:08:54;;;;;;;15.30;12.37;;;17.90;96.30;;;;;;4977704;28;20416;-77
2022/08/27 06:11:20;;;;;;;18.17;13.30;;;18.00;96.30;;;;;;4975552;28;20221;-77
2022/08/27 06:13:47;;;;;;;15.20;12.60;;;18.10;96.30;;;;;;4975216;28;20832;-77
2022/08/27 06:16:15;;;;;;;15.40;13.23;;;18.20;96.30;;;;;;4975298;28;20949;-77
2022/08/27 06:18:43;;;;;;;12.90;11.47;;;18.20;96.30;;;;;;4957934;28;20444;-77
2022/08/27 06:21:10;;;;;;;18.80;13.20;;;18.30;96.30;;;;;;4975604;28;20792;-78
2022/08/27 06:23:35;;;;;;;14.37;12.43;;;18.30;96.30;;;;;;4968573;28;20454;-78
2022/08/27 06:26:04;;;;;;;18.43;11.60;;;18.40;96.30;;;;;;4955773;29;20477;-78
2022/08/27 06:28:30;;;;;;;13.40;11.27;;;18.40;96.30;;;;;;4938705;29;20205;-78
2022/08/27 06:31:17;;;;;;;13.67;11.80;;;18.50;96.30;;;;;;4938755;29;20946;-78
2022/08/27 06:33:44;;;;;;;16.70;10.70;;;18.50;96.30;;;;;;4938889;29;20234;-79
2022/08/27 06:36:13;;;;;;;12.03;10.80;;;18.60;96.30;;;;;;4940001;28;20868;-76
2022/08/27 06:38:41;;;;;;;13.87;10.90;;;18.60;96.30;;;;;;4956017;28;20442;-78
2022/08/27 06:41:08;;;;;;;15.00;10.13;;;18.50;96.30;;;;;;4975399;28;20469;-77
2022/08/27 06:43:35;;;;;;;14.53;11.80;;;18.50;96.30;;;;;;4994493;28;20413;-77
2022/08/27 06:46:02;;;;;;;11.63;10.43;;;18.50;96.30;;;;;;4994411;28;20440;-77
2022/08/27 06:48:28;;;;;;;15.00;11.00;;;18.50;96.30;;;;;;4993501;28;20901;-78
2022/08/27 06:50:54;;;;;;;15.07;11.20;;;18.50;96.30;;;;;;4994249;28;20563;-77
2022/08/27 06:53:19;;;;;;;14.07;11.97;;;18.50;96.30;;;;;;4976828;28;20319;-76
2022/08/27 06:55:47;;;;;;;18.40;13.07;;;18.50;96.30;;;;;;4994107;28;20559;-77
2022/08/27 06:58:14;;;;;;;14.57;12.90;;;18.50;96.30;;;;;;4993988;28;20703;-76
2022/08/27 07:00:41;;;;;;;18.63;14.10;;;18.50;96.30;;;;;;4976300;28;20514;-76
2022/08/27 07:03:06;;;;;;;15.00;13.00;;;18.40;96.30;;;;;;4994230;28;20412;-78
2022/08/27 07:05:34;;;;;;;16.60;13.17;;;18.40;96.30;;;;;;4994021;28;20432;-77
2022/08/27 07:08:00;;;;;;;15.23;13.63;;;18.30;96.30;;;;;;4993624;28;20196;-74
2022/08/27 07:10:26;;;;;;;17.77;13.37;;;18.20;96.30;;;;;;4981615;28;20436;-77
2022/08/27 07:12:52;;;;;;;13.17;11.70;;;18.20;96.30;;;;;;4957268;28;20457;-76
2022/08/27 07:15:18;;;;;;;17.17;13.33;;;18.20;96.30;;;;;;4971281;28;20977;-77
2022/08/27 07:17:43;;;;;;;15.33;12.23;;;18.20;96.30;;;;;;4954880;28;20271;-78
2022/08/27 07:20:14;;;;;;;14.67;13.13;;;18.20;96.30;;;;;;4956635;28;20182;-79
2022/08/27 07:22:41;;;;;;;12.10;10.90;;;18.30;96.30;;;;;;4989647;28;20187;-78
2022/08/27 07:25:11;;;;;;;10.83;9.83;;;18.40;96.30;;;;;;4982109;28;20418;-77
2022/08/27 07:27:37;;;;;;;11.53;10.23;;;18.40;96.30;;;;;;4974056;28;20421;-77
2022/08/27 07:30:05;;;;;;;24.03;11.60;;;18.50;96.30;;;;;;4966399;28;20871;-77
2022/08/27 07:32:31;;;;;;;14.53;11.33;;;18.50;96.30;;;;;;4970500;28;20445;-77
2022/08/27 07:34:56;;;;;;;12.27;11.07;;;18.50;96.30;;;;;;4951538;28;20461;-77
2022/08/27 07:37:22;;;;;;;14.80;12.10;;;18.40;96.30;;;;;;4964963;28;20673;-77
2022/08/27 07:39:47;;;;;;;12.57;10.90;;;18.50;96.30;;;;;;4974997;28;20232;-77
2022/08/27 07:44:57;;;;;;;18.73;11.67;;;18.50;96.30;;;;;;4973782;28;20174;-77
2022/08/27 07:47:23;;;;;;;13.87;11.77;;;18.50;96.30;;;;;;4983585;28;20425;-77
2022/08/27 07:49:49;;;;;;;13.93;12.13;;;18.40;96.30;;;;;;4992370;28;20224;-77
2022/08/27 07:52:15;;;;;;;15.40;13.20;;;18.40;96.30;;;;;;4993133;28;20205;-77
2022/08/27 07:54:40;;;;;;;15.07;13.57;;;18.40;96.30;;;;;;4982012;28;20218;-77
2022/08/27 07:57:06;;;;;;;13.63;12.17;;;18.40;96.30;;;;;;4957802;28;20257;-78
2022/08/27 07:59:32;;;;;;;18.20;13.57;;;18.50;96.30;;;;;;4972316;28;20174;-76
2022/08/27 08:01:57;;;;;;;17.33;15.27;;;18.60;96.30;;;;;;4955767;28;20202;-76
2022/08/27 08:04:23;;;;;;;16.60;13.93;;;18.70;96.30;;;;;;4968646;28;20650;-76
2022/08/27 08:06:49;;;;;;;17.57;13.80;;;18.70;96.30;;;;;;4964078;28;20640;-76
2022/08/27 08:09:15;;;;;;;18.77;16.00;;;18.80;96.30;;;;;;4963762;28;20909;-76
2022/08/27 08:11:41;;;;;;;21.27;15.87;;;18.90;96.30;;;;;;4962112;28;20445;-79
2022/08/27 08:14:06;;;;;;;18.33;14.70;;;18.90;96.30;;;;;;4967716;28;20535;-77
2022/08/27 08:16:32;;;;;;;28.70;15.53;;;18.90;96.30;;;;;;4965770;28;20196;-78
2022/08/27 08:18:59;;;;;;;17.90;15.80;;;19.00;96.30;;;;;;4958443;28;20178;-79
2022/08/27 08:21:25;;;;;;;19.80;14.50;;;19.10;96.30;;;;;;4966225;28;20210;-78
2022/08/27 08:23:51;;;;;;;16.50;14.20;;;19.20;96.30;;;;;;4962888;28;20464;-78
2022/08/27 08:26:17;;;;;;;17.07;14.47;;;19.30;96.30;;;;;;4992678;28;20457;-78
2022/08/27 08:28:43;;;;;;;14.43;13.03;;;19.30;96.30;;;;;;4962569;28;20193;-78
2022/08/27 08:31:08;;;;;;;15.20;12.47;;;19.20;96.30;;;;;;4963741;28;20199;-78
2022/08/27 08:33:35;;;;;;;19.03;13.83;;;19.20;96.30;;;;;;4966582;28;20195;-78
2022/08/27 08:36:12;;;;;;;17.27;13.73;;;19.20;96.30;;;;;;4964282;28;20210;-78
2022/08/27 08:38:39;;;;;;;16.07;14.47;;;19.20;96.30;;;;;;4960979;28;20424;-76
2022/08/27 08:41:18;;;;;;;17.27;14.10;;;19.20;96.30;;;;;;4969344;28;20440;-77
2022/08/27 08:43:50;;;;;;;18.63;13.57;;;19.10;96.30;;;;;;4963130;28;20457;-78
2022/08/27 08:46:29;;;;;;;21.20;12.10;;;18.90;96.30;;;;;;4962289;28;20417;-77
2022/08/27 08:49:01;;;;;;;15.50;11.57;;;18.70;96.30;;;;;;4962961;28;20429;-77
2022/08/27 08:51:35;;;;;;;15.53;12.30;;;18.60;96.30;;;;;;4961719;28;20442;-79
2022/08/27 08:54:08;;;;;;;19.33;12.60;;;18.60;96.30;;;;;;4972439;28;20909;-77
2022/08/27 08:56:49;;;;;;;13.70;12.07;;;18.60;96.30;;;;;;4973164;28;20437;-78
2022/08/27 08:59:32;;;;;;;13.70;12.30;;;18.60;96.30;;;;;;4972712;28;20557;-78
2022/08/27 09:01:57;;;;;;;14.00;11.70;;;18.60;96.30;;;;;;4972802;28;20544;-78
2022/08/27 09:04:25;;;;;;;14.57;11.07;;;18.70;96.30;;;;;;4955523;28;20552;-78
2022/08/27 09:07:07;;;;;;;14.33;11.73;;;18.70;96.30;;;;;;4973016;28;20181;-77
2022/08/27 09:09:57;;;;;;;15.97;11.73;;;18.60;96.30;;;;;;4980927;28;20424;-78
2022/08/27 09:12:29;;;;;;;16.30;12.13;;;18.80;96.30;;;;;;4996073;28;20936;-78
2022/08/27 09:15:22;;;;;;;12.50;11.30;;;18.70;96.30;;;;;;4996025;28;20455;-77
2022/08/27 09:17:49;;;;;;;16.20;11.47;;;18.80;96.30;;;;;;4992583;28;20827;-77
2022/08/27 09:20:18;;;;;;;19.57;13.47;;;18.80;96.30;;;;;;4978403;28;20503;-77
2022/08/27 09:22:47;;;;;;;15.33;12.80;;;18.90;96.30;;;;;;4995855;28;20417;-77
2022/08/27 09:25:31;;;;;;;17.00;13.20;;;19.00;96.30;;;;;;4996033;28;20781;-76
2022/08/27 09:28:00;;;;;;;19.60;15.07;;;19.10;96.30;;;;;;4995650;28;20491;-77
2022/08/27 09:30:29;;;;;;;15.83;13.73;;;19.10;96.30;;;;;;4995735;28;20409;-77
2022/08/27 09:33:03;;;;;;;17.03;14.00;;;19.20;96.30;;;;;;4995811;28;20432;-77
2022/08/27 09:35:55;;;;;;;17.70;13.80;;;19.20;96.30;;;;;;4995773;28;20456;-77
2022/08/27 09:38:31;;;;;;;21.10;12.97;;;19.30;96.30;;;;;;4991375;28;20428;-76
2022/08/27 09:41:01;;;;;;;16.17;13.73;;;19.30;96.30;;;;;;4986873;28;20800;-76
2022/08/27 09:43:30;;;;;;;18.53;14.77;;;19.50;96.30;;;;;;4976097;28;20402;-77
2022/08/27 09:46:18;;;;;;;18.57;15.37;;;19.60;96.30;;;;;;4976206;28;20437;-76
2022/08/27 09:48:43;;;;;;;14.70;12.97;;;19.90;96.30;;;;;;4975722;28;20406;-76
2022/08/27 09:51:13;;;;;;;14.93;11.40;;;20.10;96.30;;;;;;4976016;28;20513;-76
2022/08/27 09:53:44;;;;;;;13.77;12.40;;;20.20;96.30;;;;;;4976157;28;20261;-77
2022/08/27 09:56:24;;;;;;;24.40;12.50;;;20.10;96.30;;;;;;4975845;28;20464;-77
2022/08/27 09:59:23;;;;;;;13.20;11.80;;;20.00;96.30;;;;;;4951369;29;20426;-78
2022/08/27 10:02:02;;;;;;;16.30;13.13;;;20.00;96.30;;;;;;4984516;28;20480;-77
2022/08/27 10:04:41;;;;;;;13.17;11.87;;;20.00;96.30;;;;;;4983941;28;20820;-77
2022/08/27 10:07:40;;;;;;;17.80;13.00;;;20.00;96.30;;;;;;4995330;28;20440;-77
2022/08/27 10:10:19;;;;;;;15.37;12.67;;;19.80;96.30;;;;;;4981319;28;20431;-76
2022/08/27 10:13:09;;;;;;;13.93;12.00;;;19.70;96.30;;;;;;4987463;28;20453;-77
2022/08/27 10:16:00;;;;;;;14.97;11.07;;;19.60;96.30;;;;;;4975434;28;20470;-77
2022/08/27 10:18:48;;;;;;;17.93;13.40;;;19.60;96.30;;;;;;4978535;28;20426;-78
2022/08/27 10:24:18;;;;;;;15.93;14.13;;;19.40;96.30;;;;;;5588174;23;20508;-78
2022/08/27 10:26:59;;;;;;;22.60;14.03;;;19.20;96.30;;;;;;4988636;28;20466;-79
2022/08/27 10:29:50;;;;;;;16.97;13.50;;;19.00;96.30;;;;;;4994415;28;20900;-78
2022/08/27 10:32:24;;;;;;;16.33;13.00;;;19.00;96.30;;;;;;4977384;28;20425;-78
2022/08/27 10:35:07;;;;;;;17.37;14.93;;;18.90;96.30;;;;;;4974236;28;20461;-78
2022/08/27 10:37:51;;;;;;;20.67;14.10;;;19.00;96.30;;;;;;4963010;28;20413;-78
2022/08/27 10:40:54;;;;;;;13.83;12.17;;;19.20;96.30;;;;;;4978485;28;20421;-79
2022/08/27 10:43:30;;;;;;;18.77;12.30;;;19.20;96.30;;;;;;4989010;28;21814;-77
2022/08/27 10:46:43;;;;;;;24.67;14.73;;;19.20;96.30;;;;;;4976436;28;20417;-77
2022/08/27 10:49:14;;;;;;;27.47;14.50;;;19.30;96.30;;;;;;4979416;28;20432;-77
2022/08/27 10:52:07;;;;;;;22.30;14.43;;;19.30;96.30;;;;;;4981505;28;20445;-77
2022/08/27 10:54:43;;;;;;;20.47;15.90;;;19.20;96.30;;;;;;4974306;28;20548;-76
2022/08/27 10:57:21;;;;;;;23.37;16.27;;;19.10;96.30;;;;;;4957686;28;20561;-77
2022/08/27 11:00:12;;;;;;;24.27;17.70;;;19.00;96.30;;;;;;4974953;28;20420;-78
2022/08/27 11:02:46;;;;;;;21.43;14.77;;;18.80;96.30;;;;;;4985057;28;20412;-78
2022/08/27 11:05:17;;;;;;;15.00;13.23;;;18.80;96.30;;;;;;4974607;28;20936;-78
2022/08/27 11:07:52;;;;;;;17.63;13.70;;;18.70;96.30;;;;;;4974476;28;20826;-79
2022/08/27 11:10:25;;;;;;;15.53;13.30;;;18.70;96.30;;;;;;4988668;28;20416;-78
2022/08/27 11:12:58;;;;;;;20.30;13.13;;;18.80;96.30;;;;;;4993841;28;20420;-78
2022/08/27 11:15:29;;;;;;;15.33;11.07;;;19.20;96.30;;;;;;4993804;28;20453;-78
2022/08/27 11:18:18;;;;;;;15.67;10.67;;;19.60;96.30;;;;;;4975716;28;20413;-77
2022/08/27 11:20:52;;;;;;;10.50;7.93;;;19.80;96.30;;;;;;4966017;28;20924;-77
2022/08/27 11:23:23;;;;;;;8.53;7.63;;;20.00;96.30;;;;;;4993583;28;20419;-78
2022/08/27 11:25:56;;;;;;;6.77;5.80;;;20.20;96.30;;;;;;4993617;28;20520;-77
2022/08/27 11:28:42;;;;;;;7.10;5.80;;;20.50;96.30;;;;;;4993491;28;20424;-77
2022/08/27 11:31:29;;;;;;;6.37;5.70;;;20.60;96.30;;;;;;4993530;28;20504;-77
2022/08/27 11:34:16;;;;;;;6.00;5.50;;;20.70;96.30;;;;;;4992523;28;20405;-78
2022/08/27 11:37:15;;;;;;;7.43;5.83;;;20.80;96.30;;;;;;4993562;28;20416;-78
2022/08/27 11:39:50;;;;;;;7.60;5.87;;;20.70;96.30;;;;;;4993074;28;20424;-78
2022/08/27 11:42:43;;;;;;;8.47;6.83;;;20.60;96.30;;;;;;4993302;28;20432;-77
2022/08/27 11:45:29;;;;;;;6.63;5.80;;;20.50;96.30;;;;;;4993243;28;20496;-78
2022/08/27 11:48:01;;;;;;;6.97;6.07;;;20.40;96.30;;;;;;4993008;28;20441;-79
2022/08/27 11:50:29;;;;;;;15.50;7.07;;;20.30;96.30;;;;;;4993156;28;20532;-78
2022/08/27 11:52:57;;;;;;;10.67;6.97;;;20.30;96.30;;;;;;4975714;28;20417;-78
2022/08/27 11:55:34;;;;;;;8.67;7.57;;;20.30;96.30;;;;;;4992990;28;20451;-77
2022/08/27 11:58:27;;;;;;;8.50;7.30;;;20.20;96.30;;;;;;4992836;28;20428;-78
2022/08/27 12:00:53;;;;;;;8.53;7.53;;;20.10;96.30;;;;;;4992971;28;20435;-78
2022/08/27 12:03:18;;;;;;;9.87;8.33;;;20.10;96.30;;;;;;4993105;28;20409;-78
2022/08/27 12:05:48;;;;;;;12.37;9.30;;;20.10;96.30;;;;;;4992846;28;20177;-78
2022/08/27 12:08:25;;;;;;;10.23;9.23;;;20.10;96.30;;;;;;4992621;28;20664;-78
2022/08/27 12:11:10;;;;;;;15.57;9.93;;;20.00;96.30;;;;;;4992749;28;20811;-78
2022/08/27 12:13:59;;;;;;;16.33;9.33;;;20.00;96.30;;;;;;4992942;28;20413;-78
2022/08/27 12:16:30;;;;;;;12.83;8.90;;;20.20;96.30;;;;;;4992587;28;20455;-78
2022/08/27 12:19:04;;;;;;;10.07;8.67;;;20.30;96.30;;;;;;4992530;28;20408;-79
2022/08/27 12:21:50;;;;;;;9.30;8.50;;;20.20;96.30;;;;;;4992799;28;20415;-78
2022/08/27 12:24:39;;;;;;;8.90;7.20;;;20.20;96.30;;;;;;4992248;28;20796;-79
2022/08/27 12:27:23;;;;;;;10.27;7.57;;;20.10;96.30;;;;;;4984593;28;20839;-79
2022/08/27 12:29:53;;;;;;;7.60;6.90;;;20.10;96.30;;;;;;4972750;28;20933;-79
2022/08/27 12:32:40;;;;;;;9.67;7.20;;;20.10;96.30;;;;;;4973231;28;20429;-78
2022/08/27 12:35:22;;;;;;;7.60;6.53;;;20.20;96.30;;;;;;4973207;28;20491;-78
2022/08/27 12:37:50;;;;;;;7.83;6.53;;;20.20;96.30;;;;;;4955666;28;20421;-78
2022/08/27 12:40:22;;;;;;;10.27;7.13;;;20.20;96.30;;;;;;4976073;28;20409;-78
2022/08/27 12:42:48;;;;;;;13.50;7.70;;;20.30;96.30;;;;;;4992752;28;20412;-79
2022/08/27 12:45:19;;;;;;;14.47;9.63;;;20.40;96.30;;;;;;4993132;28;20818;-79
2022/08/27 12:47:45;;;;;;;12.50;8.73;;;20.50;96.30;;;;;;4996467;28;20439;-79
2022/08/27 12:50:11;;;;;;;13.93;8.60;;;20.50;96.30;;;;;;4996365;28;20431;-79
2022/08/27 12:53:05;;;;;;;14.53;8.83;;;20.70;96.30;;;;;;4996430;28;20324;-79
2022/08/27 12:55:58;;;;;;;10.47;8.50;;;20.70;96.30;;;;;;4996491;28;20444;-79
2022/08/27 12:58:56;;;;;;;12.60;8.00;;;20.90;96.30;;;;;;4996336;28;20889;-79
2022/08/27 13:01:59;;;;;;;9.50;7.10;;;20.90;96.30;;;;;;4996386;28;20487;-79
2022/08/27 13:04:28;;;;;;;15.27;8.30;;;21.00;96.30;;;;;;4996189;28;20408;-79
2022/08/27 13:06:54;;;;;;;11.80;7.97;;;21.10;96.30;;;;;;5012007;28;20404;-79
2022/08/27 13:09:35;;;;;;;14.83;8.60;;;21.10;96.30;;;;;;5021412;28;20485;-80
2022/08/27 13:12:05;;;;;;;11.47;9.43;;;21.20;96.30;;;;;;5021829;28;20186;-80
2022/08/27 13:14:37;;;;;;;15.70;9.37;;;21.20;96.30;;;;;;5022077;28;20432;-79
2022/08/27 13:17:15;;;;;;;12.70;8.17;;;21.30;96.30;;;;;;5007628;28;20828;-78
2022/08/27 13:19:59;;;;;;;14.37;9.47;;;21.20;96.30;;;;;;4996086;28;20947;-78
2022/08/27 13:22:34;;;;;;;11.03;9.00;;;21.20;96.30;;;;;;4996268;28;20436;-77
2022/08/27 13:25:01;;;;;;;13.17;9.13;;;21.30;96.30;;;;;;4996171;28;20463;-77
2022/08/27 13:27:29;;;;;;;14.57;9.70;;;21.20;96.30;;;;;;4996668;28;20420;-77
2022/08/27 13:29:56;;;;;;;16.57;10.53;;;20.90;96.30;;;;;;4978942;28;20464;-78
2022/08/27 13:32:23;;;;;;;14.73;10.27;;;20.60;96.30;;;;;;4996295;28;20436;-78
2022/08/27 13:34:48;;;;;;;49.10;14.57;;;20.40;96.30;;;;;;4996020;28;20475;-76
2022/08/27 13:37:24;;;;;;;23.93;10.80;;;20.10;96.30;;;;;;4996038;28;20779;-76
2022/08/27 13:39:55;;;;;;;5.70;3.63;;;19.70;96.30;;;;;;4995633;28;20535;-77
2022/08/27 13:42:21;;;;;;;8.73;3.07;;;19.20;96.30;;;;;;4976306;28;20798;-77
2022/08/27 13:44:47;;;;;;;4.23;1.87;;;19.00;96.30;;;;;;4976419;28;20964;-78
2022/08/27 13:47:18;;;;;;;4.20;1.97;;;18.80;96.30;;;;;;4976180;28;20999;-77
2022/08/27 13:49:43;;;;;;;9.70;1.93;;;18.70;96.30;;;;;;4975647;28;20414;-77
2022/08/27 13:52:29;;;;;;;4.87;2.20;;;18.70;96.30;;;;;;4975644;28;20568;-77
2022/08/27 13:55:05;;;;;;;3.80;1.87;;;18.70;96.30;;;;;;4975929;28;20653;-77
2022/08/27 13:57:46;;;;;;;3.70;1.77;;;18.70;96.30;;;;;;4975137;28;20410;-77
2022/08/27 14:00:27;;;;;;;11.90;2.80;;;18.60;96.30;;;;;;4975688;28;20414;-77
2022/08/27 14:02:54;;;;;;;3.40;2.70;;;18.60;96.30;;;;;;4958619;28;20810;-77
2022/08/27 14:05:22;;;;;;;10.57;2.33;;;18.60;96.30;;;;;;4975749;28;20432;-77
2022/08/27 14:07:51;;;;;;;2.90;2.43;;;18.50;96.30;;;;;;4975588;28;20456;-77
2022/08/27 14:10:16;;;;;;;6.53;2.97;;;18.50;96.30;;;;;;4989612;28;20421;-78
2022/08/27 14:12:43;;;;;;;8.40;2.97;;;18.50;96.30;;;;;;4995187;28;20780;-78
2022/08/27 14:15:46;;;;;;;4.30;3.93;;;18.50;96.30;;;;;;4995032;28;20194;-77
2022/08/27 14:18:30;;;;;;;4.03;3.70;;;18.40;96.30;;;;;;4896608;29;20464;-78
2022/08/27 14:20:57;;;;;;;7.13;5.33;;;18.50;96.30;;;;;;4987942;28;20511;-78
2022/08/27 14:23:23;;;;;;;6.03;5.43;;;18.40;96.30;;;;;;4977573;28;20435;-79
2022/08/27 14:25:50;;;;;;;12.07;7.27;;;18.40;96.30;;;;;;4980058;28;20595;-79
2022/08/27 14:28:16;;;;;;;11.47;8.10;;;18.50;96.30;;;;;;4996322;28;20421;-79
2022/08/27 14:30:41;;;;;;;10.03;8.93;;;18.50;96.30;;;;;;4977521;28;20452;-78
2022/08/27 14:33:07;;;;;;;10.93;9.87;;;18.50;96.30;;;;;;4996481;28;20196;-79
2022/08/27 14:35:34;;;;;;;15.20;10.47;;;18.60;96.30;;;;;;4998202;28;20268;-79
2022/08/27 14:38:07;;;;;;;18.90;11.37;;;18.70;96.30;;;;;;4980937;28;20177;-79
2022/08/27 14:40:32;;;;;;;16.23;13.93;;;18.70;96.30;;;;;;4998583;28;20441;-79
2022/08/27 14:42:58;;;;;;;13.63;11.03;;;18.70;96.30;;;;;;4998297;28;20509;-80
2022/08/27 14:45:23;;;;;;;19.30;12.50;;;18.60;96.30;;;;;;4996784;28;20173;-79
2022/08/27 14:47:50;;;;;;;17.37;13.00;;;18.70;96.30;;;;;;4979077;28;20745;-79
2022/08/27 14:50:16;;;;;;;14.80;12.07;;;18.70;96.30;;;;;;4996652;28;20205;-79
2022/08/27 14:52:41;;;;;;;20.57;13.20;;;18.70;96.30;;;;;;4996066;28;20414;-79
2022/08/27 14:55:09;;;;;;;14.63;12.43;;;18.80;96.30;;;;;;4996214;28;20212;-80
2022/08/27 14:57:35;;;;;;;14.10;12.70;;;19.00;96.30;;;;;;4996742;28;20240;-79
2022/08/27 15:00:00;;;;;;;10.10;8.20;;;19.00;96.30;;;;;;4978975;28;20503;-80
2022/08/27 15:02:26;;;;;;;7.17;6.03;;;19.00;96.30;;;;;;4997078;28;20205;-80
2022/08/27 15:04:51;;;;;;;8.07;7.27;;;18.80;96.30;;;;;;4997249;28;20322;-79
2022/08/27 15:07:18;;;;;;;9.20;4.87;;;18.70;96.30;;;;;;4995928;28;20252;-77
2022/08/27 15:09:44;;;;;;;16.40;5.20;;;18.70;96.30;;;;;;4976204;28;20579;-78
2022/08/27 15:12:11;;;;;;;6.00;4.10;;;18.70;96.30;;;;;;4993793;28;20495;-78
2022/08/27 15:14:38;;;;;;;4.73;4.33;;;18.80;96.30;;;;;;4993766;28;20459;-77
2022/08/27 15:17:05;;;;;;;6.27;4.67;;;18.80;96.30;;;;;;4993671;28;20412;-77
2022/08/27 15:19:32;;;;;;;6.47;5.87;;;18.90;96.30;;;;;;4993450;28;20892;-77
2022/08/27 15:22:09;;;;;;;7.20;6.47;;;18.90;96.30;;;;;;4993583;28;20425;-77
2022/08/27 15:24:41;;;;;;;6.10;5.23;;;19.00;96.30;;;;;;4993711;28;20436;-78
2022/08/27 15:27:07;;;;;;;5.23;4.30;;;19.10;96.30;;;;;;4994103;28;20433;-78
2022/08/27 15:29:32;;;;;;;3.10;2.80;;;19.10;96.30;;;;;;4993451;28;20419;-78
2022/08/27 15:31:58;;;;;;;4.10;3.10;;;19.00;96.30;;;;;;4995322;28;20197;-79
2022/08/27 15:34:23;;;;;;;5.63;3.30;;;19.10;96.30;;;;;;5000404;28;20228;-80
2022/08/27 15:36:49;;;;;;;5.27;3.57;;;19.10;96.30;;;;;;5001329;28;20201;-80
2022/08/27 15:39:14;;;;;;;4.80;3.27;;;19.20;96.30;;;;;;5000153;28;20249;-80
2022/08/27 15:41:41;;;;;;;2.90;2.60;;;19.10;96.30;;;;;;4999921;28;20197;-80
2022/08/27 15:44:07;;;;;;;3.63;2.50;;;19.00;96.30;;;;;;4983578;28;20268;-80
2022/08/27 15:46:32;;;;;;;7.50;2.30;;;18.90;96.30;;;;;;4998893;28;20444;-80
2022/08/27 15:48:58;;;;;;;9.00;2.63;;;18.90;96.30;;;;;;4997010;28;20178;-80
2022/08/27 15:51:32;;;;;;;3.10;2.33;;;18.90;96.30;;;;;;4979059;28;20204;-80
2022/08/27 15:53:58;;;;;;;11.13;2.37;;;18.80;96.30;;;;;;4996569;28;20169;-80
2022/08/27 15:56:25;;;;;;;7.20;2.80;;;18.70;96.30;;;;;;4996397;28;20448;-79
2022/08/27 15:58:50;;;;;;;3.30;2.43;;;18.70;96.30;;;;;;4978956;28;20424;-80
2022/08/27 16:01:25;;;;;;;2.90;2.70;;;18.60;96.30;;;;;;4996706;28;20441;-80
2022/08/27 16:03:51;;;;;;;8.00;2.97;;;18.60;96.30;;;;;;4996380;28;20173;-80
2022/08/27 16:06:17;;;;;;;2.70;2.50;;;18.60;96.30;;;;;;4996395;28;20519;-80
2022/08/27 16:08:42;;;;;;;2.90;2.60;;;18.60;96.30;;;;;;4996501;28;20479;-80
2022/08/27 16:11:08;;;;;;;3.03;2.73;;;18.50;96.30;;;;;;4996294;28;20725;-80
2022/08/27 16:13:33;;;;;;;4.40;2.67;;;18.50;96.30;;;;;;4996488;28;20664;-80
2022/08/27 16:16:00;;;;;;;2.63;2.43;;;18.50;96.30;;;;;;4996883;28;20331;-80
2022/08/27 16:18:31;;;;;;;2.97;2.70;;;18.50;96.30;;;;;;4979661;28;20680;-80
2022/08/27 16:28:43;;;;;;;6.00;2.17;;;18.40;96.30;;;;;;5674509;23;20497;-80
2022/08/27 16:31:11;;;;;;;2.93;2.40;;;18.40;96.30;;;;;;4976898;28;20426;-80
2022/08/27 16:33:37;;;;;;;2.93;2.73;;;18.40;96.30;;;;;;4976677;28;20913;-80
2022/08/27 16:36:03;;;;;;;4.43;2.70;;;18.40;96.30;;;;;;4959872;28;20557;-80
2022/08/27 16:38:29;;;;;;;3.63;2.70;;;18.40;96.30;;;;;;4976743;28;20166;-80
2022/08/27 16:40:55;;;;;;;3.40;2.80;;;18.30;96.30;;;;;;4976268;28;20445;-80
2022/08/27 16:43:24;;;;;;;6.43;3.20;;;18.30;96.30;;;;;;4975871;28;20224;-80
2022/08/27 16:45:55;;;;;;;3.40;3.10;;;18.30;96.30;;;;;;4956792;28;20433;-78
2022/08/27 16:51:18;;;;;;;6.73;2.73;;;18.20;96.30;;;;;;4973382;28;20440;-78
2022/08/27 16:53:48;;;;;;;4.73;2.70;;;18.20;96.30;;;;;;4973097;28;20421;-79
2022/08/27 16:56:16;;;;;;;5.73;2.90;;;18.20;96.30;;;;;;4972997;28;20505;-78
2022/08/27 16:58:42;;;;;;;4.27;3.90;;;18.10;96.30;;;;;;4955476;28;20476;-80
2022/08/27 17:01:10;;;;;;;9.00;4.60;;;18.20;96.30;;;;;;4972853;28;20426;-79
2022/08/27 17:03:51;;;;;;;6.87;4.30;;;18.20;96.30;;;;;;4973093;28;20425;-78
2022/08/27 17:06:17;;;;;;;5.53;4.10;;;18.10;96.30;;;;;;4972968;28;20394;-78
2022/08/27 17:08:44;;;;;;;8.80;4.70;;;18.10;96.30;;;;;;4971081;28;20413;-78
2022/08/27 17:11:16;;;;;;;10.33;4.80;;;18.10;96.30;;;;;;4936376;29;20442;-77
2022/08/27 17:13:43;;;;;;;5.80;5.20;;;18.10;96.30;;;;;;4953711;29;20937;-78